createdAt,value
2024-04-17T00:01:38.616Z,10.19
2024-04-17T00:05:41.073Z,10.22
2024-04-17T00:09:43.510Z,10.09
2024-04-17T00:13:45.874Z,9.99
2024-04-17T00:17:48.263Z,9.92
2024-04-17T00:21:50.848Z,9.93
2024-04-17T00:25:53.490Z,9.87
2024-04-17T00:29:56.010Z,9.80
2024-04-17T00:33:59.284Z,9.70
2024-04-17T00:38:01.695Z,9.68
2024-04-17T00:42:04.304Z,9.74
2024-04-17T00:46:09.862Z,9.91
2024-04-17T00:50:13.087Z,9.94
2024-04-17T00:54:15.856Z,10.04
2024-04-17T00:58:19.394Z,10.11
2024-04-17T01:02:21.942Z,10.04
2024-04-17T01:06:24.504Z,10.15
2024-04-17T01:10:27.207Z,10.18
2024-04-17T01:14:32.478Z,10.33
2024-04-17T01:18:42.311Z,10.29
2024-04-17T01:22:50.331Z,10.20
2024-04-17T01:26:57.591Z,10.18
2024-04-17T01:31:09.472Z,10.13
2024-04-17T01:35:17.483Z,10.11
2024-04-17T01:39:25.324Z,10.11
2024-04-17T01:43:33.314Z,10.13
2024-04-17T01:47:41.345Z,10.02
2024-04-17T01:51:48.245Z,9.92
2024-04-17T01:55:56.522Z,9.86
2024-04-17T02:00:04.115Z,9.87
2024-04-17T02:04:16.590Z,9.88
2024-04-17T02:08:23.697Z,9.90
2024-04-17T02:12:31.988Z,9.80
2024-04-17T02:16:39.405Z,9.81
2024-04-17T02:20:46.153Z,9.76
2024-04-17T02:24:51.961Z,9.70
2024-04-17T02:28:59.805Z,9.65
2024-04-17T02:33:07.757Z,9.62
2024-04-17T02:37:15.877Z,9.55
2024-04-17T02:41:19.669Z,9.50
2024-04-17T02:45:22.068Z,9.46
2024-04-17T02:49:24.625Z,9.41
2024-04-17T02:53:27.050Z,9.36
2024-04-17T02:57:29.968Z,9.37
2024-04-17T03:01:33.332Z,9.43
2024-04-17T03:05:36.092Z,9.43
2024-04-17T03:09:38.583Z,9.45
2024-04-17T03:13:40.990Z,9.56
2024-04-17T03:17:43.407Z,9.54
2024-04-17T03:21:45.762Z,9.53
2024-04-17T03:25:58.054Z,9.41
2024-04-17T03:30:01.421Z,9.43
2024-04-17T03:34:03.905Z,9.43
2024-04-17T03:38:06.308Z,9.33
2024-04-17T03:42:08.828Z,9.26
2024-04-17T03:46:11.168Z,9.21
2024-04-17T03:50:13.527Z,9.08
2024-04-17T03:54:18.857Z,8.95
2024-04-17T03:58:21.690Z,8.90
2024-04-17T04:02:24.921Z,8.93
2024-04-17T04:06:28.061Z,8.84
2024-04-17T04:10:30.457Z,8.72
2024-04-17T04:14:33.596Z,8.67
2024-04-17T04:18:35.971Z,8.69
2024-04-17T04:22:38.369Z,8.44
2024-04-17T04:26:40.865Z,8.39
2024-04-17T04:30:43.207Z,8.39
2024-04-17T04:34:45.729Z,8.14
2024-04-17T04:38:48.213Z,7.95
2024-04-17T04:42:50.574Z,8.05
2024-04-17T04:46:54.810Z,8.11
2024-04-17T04:50:57.222Z,8.08
2024-04-17T04:54:59.577Z,8.14
2024-04-17T04:59:02.135Z,8.23
2024-04-17T05:03:04.928Z,8.30
2024-04-17T05:07:07.530Z,8.36
2024-04-17T05:11:12.042Z,8.36
2024-04-17T05:15:14.444Z,8.39
2024-04-17T05:19:16.796Z,8.39
2024-04-17T05:23:19.188Z,8.49
2024-04-17T05:27:21.569Z,8.38
2024-04-17T05:31:24.002Z,8.45
2024-04-17T05:35:26.770Z,8.76
2024-04-17T05:39:32.300Z,9.20
2024-04-17T05:43:34.624Z,9.63
2024-04-17T05:47:37.667Z,10.07
2024-04-17T05:51:40.072Z,10.42
2024-04-17T05:55:42.574Z,10.77
2024-04-17T05:59:45.002Z,10.99
2024-04-17T06:03:47.439Z,11.14
2024-04-17T06:07:49.988Z,11.27
2024-04-17T06:11:52.363Z,11.44
2024-04-17T06:15:54.791Z,11.53
2024-04-17T06:19:57.351Z,11.73
2024-04-17T06:23:59.859Z,11.73
2024-04-17T06:28:02.234Z,11.75
2024-04-17T06:32:05.028Z,11.82
2024-04-17T06:36:08.064Z,11.83
2024-04-17T06:40:10.744Z,11.85
2024-04-17T06:44:17.006Z,11.92
2024-04-17T06:48:22.488Z,11.99
2024-04-17T06:52:27.042Z,12.24
2024-04-17T06:56:29.875Z,12.37
2024-04-17T07:00:34.226Z,12.47
2024-04-17T07:04:36.925Z,12.62
2024-04-17T07:08:39.610Z,12.69
2024-04-17T07:12:43.012Z,12.72
2024-04-17T07:16:45.368Z,12.35
2024-04-17T07:20:50.378Z,12.34
2024-04-17T07:24:52.740Z,12.54
2024-04-17T07:28:55.311Z,12.36
2024-04-17T07:32:57.840Z,12.30
2024-04-17T07:37:00.312Z,12.56
2024-04-17T07:41:02.855Z,12.69
2024-04-17T07:45:05.956Z,12.67
2024-04-17T07:49:08.465Z,12.78
2024-04-17T07:53:10.787Z,12.99
2024-04-17T07:57:13.100Z,13.12
2024-04-17T08:01:17.873Z,13.20
2024-04-17T08:05:20.414Z,13.52
2024-04-17T08:09:23.042Z,13.80
2024-04-17T08:13:25.581Z,13.83
2024-04-17T08:17:28.114Z,13.94
2024-04-17T08:21:30.576Z,14.31
2024-04-17T08:25:33.169Z,14.38
2024-04-17T08:29:35.474Z,14.52
2024-04-17T08:33:37.859Z,14.71
2024-04-17T08:37:40.319Z,14.84
2024-04-17T08:41:49.633Z,15.01
2024-04-17T08:45:56.311Z,15.05
2024-04-17T08:50:00.573Z,15.20
2024-04-17T08:54:05.149Z,15.18
2024-04-17T08:58:08.600Z,15.12
2024-04-17T09:02:15.352Z,15.20
2024-04-17T09:06:18.366Z,15.22
2024-04-17T09:10:21.170Z,15.27
2024-04-17T09:14:23.535Z,15.43
2024-04-17T09:18:26.912Z,15.42
2024-04-17T09:22:29.540Z,15.55
2024-04-17T09:26:31.927Z,15.73
2024-04-17T09:30:34.268Z,15.88
2024-04-17T09:34:36.602Z,15.99
2024-04-17T09:38:39.715Z,16.13
2024-04-17T09:42:44.869Z,16.38
2024-04-17T09:46:55.670Z,16.63
2024-04-17T09:51:04.170Z,17.30
2024-04-17T09:55:10.327Z,17.66
2024-04-17T09:59:13.128Z,17.78
2024-04-17T10:03:16.883Z,18.18
2024-04-17T10:07:20.845Z,18.60
2024-04-17T10:11:27.963Z,18.74
2024-04-17T10:15:30.397Z,18.55
2024-04-17T10:19:32.760Z,17.99
2024-04-17T10:23:35.083Z,17.47
2024-04-17T10:27:37.736Z,17.21
2024-04-17T10:31:40.068Z,16.95
2024-04-17T10:35:52.914Z,16.87
2024-04-17T10:39:55.547Z,16.98
2024-04-17T10:43:58.403Z,16.65
2024-04-17T10:48:04.060Z,16.39
2024-04-17T10:52:06.866Z,16.14
2024-04-17T10:56:11.951Z,15.97
2024-04-17T11:00:15.806Z,15.72
2024-04-17T11:04:18.292Z,15.56
2024-04-17T11:08:21.361Z,14.82
2024-04-17T11:12:24.044Z,14.40
2024-04-17T11:16:26.368Z,14.04
2024-04-17T11:20:28.777Z,13.51
2024-04-17T11:24:32.361Z,13.16
2024-04-17T11:28:35.011Z,12.94
2024-04-17T11:32:37.511Z,12.91
2024-04-17T11:36:39.991Z,12.47
2024-04-17T11:40:46.084Z,12.46
2024-04-17T11:44:48.462Z,12.16
2024-04-17T11:48:50.865Z,12.17
2024-04-17T11:52:53.447Z,11.87
2024-04-17T11:56:55.998Z,11.88
2024-04-17T12:00:58.921Z,11.97
2024-04-17T12:05:01.916Z,12.29
2024-04-17T12:09:04.438Z,12.68
2024-04-17T12:13:06.866Z,13.22
2024-04-17T12:17:09.796Z,13.48
2024-04-17T12:21:12.123Z,13.73
2024-04-17T12:25:33.124Z,13.93
2024-04-17T12:29:35.495Z,14.26
2024-04-17T12:33:37.795Z,14.39
2024-04-17T12:37:41.249Z,14.49
2024-04-17T12:41:43.731Z,14.41
2024-04-17T12:45:46.140Z,14.35
2024-04-17T12:49:48.602Z,14.10
2024-04-17T12:53:50.968Z,13.95
2024-04-17T12:57:53.721Z,13.55
2024-04-17T13:01:56.218Z,13.28
2024-04-17T13:06:03.128Z,12.96
2024-04-17T13:10:06.524Z,12.69
2024-04-17T13:14:09.196Z,12.61
2024-04-17T13:18:11.608Z,12.22
2024-04-17T13:22:14.064Z,11.88
2024-04-17T13:26:16.447Z,11.48
2024-04-17T13:30:18.975Z,11.08
2024-04-17T13:34:21.841Z,11.02
2024-04-17T13:38:26.266Z,11.33
2024-04-17T13:42:28.556Z,11.19
2024-04-17T13:46:30.970Z,11.24
2024-04-17T13:50:33.288Z,11.54
2024-04-17T13:54:35.864Z,12.10
2024-04-17T13:58:38.403Z,12.61
2024-04-17T14:02:41.009Z,12.70
2024-04-17T14:06:43.652Z,12.24
2024-04-17T14:10:46.127Z,12.48
2024-04-17T14:14:52.448Z,12.75
2024-04-17T14:18:55.954Z,13.18
2024-04-17T14:22:58.428Z,13.85
2024-04-17T14:27:00.917Z,13.96
2024-04-17T14:31:05.122Z,14.44
2024-04-17T14:35:08.064Z,14.70
2024-04-17T14:39:10.894Z,14.95
2024-04-17T14:43:13.598Z,15.13
2024-04-17T14:47:16.045Z,14.61
2024-04-17T14:51:19.701Z,14.86
2024-04-17T14:55:22.095Z,14.87
2024-04-17T14:59:24.485Z,14.96
2024-04-17T15:03:29.356Z,14.57
2024-04-17T15:07:32.825Z,15.09
2024-04-17T15:11:39.064Z,14.75
2024-04-17T15:15:41.629Z,14.70
2024-04-17T15:19:46.035Z,14.52
2024-04-17T15:23:48.597Z,14.85
2024-04-17T15:27:50.945Z,15.13
2024-04-17T15:31:53.363Z,15.66
2024-04-17T15:36:01.437Z,16.01
2024-04-17T15:40:03.834Z,16.25
2024-04-17T15:44:06.300Z,16.85
2024-04-17T15:48:08.770Z,17.25
2024-04-17T15:52:11.629Z,18.28
2024-04-17T15:56:18.714Z,19.66
2024-04-17T16:00:21.194Z,21.34
2024-04-17T16:04:23.738Z,22.06
2024-04-17T16:08:26.823Z,23.56
2024-04-17T16:12:31.662Z,23.32
2024-04-17T16:16:34.731Z,24.18
2024-04-17T16:20:37.067Z,23.91
2024-04-17T16:24:41.060Z,24.26
2024-04-17T16:28:45.113Z,24.76
2024-04-17T16:32:47.641Z,24.36
2024-04-17T16:36:50.083Z,24.33
2024-04-17T16:40:52.412Z,22.76
2024-04-17T16:44:54.761Z,23.81
2024-04-17T16:48:58.308Z,23.19
2024-04-17T16:53:01.767Z,23.27
2024-04-17T16:57:04.468Z,23.63
2024-04-17T17:01:07.677Z,23.56
2024-04-17T17:05:10.173Z,22.16
2024-04-17T17:09:12.547Z,20.55
2024-04-17T17:13:15.214Z,19.41
2024-04-17T17:17:17.834Z,19.50
2024-04-17T17:21:20.577Z,19.60
2024-04-17T17:25:23.072Z,18.55
2024-04-17T17:29:25.657Z,17.33
2024-04-17T17:33:28.974Z,16.83
2024-04-17T17:37:31.467Z,16.39
2024-04-17T17:41:33.886Z,15.77
2024-04-17T17:45:36.377Z,15.13
2024-04-17T17:49:38.807Z,14.35
2024-04-17T17:53:44.708Z,13.90
2024-04-17T17:57:47.058Z,13.42
2024-04-17T18:01:49.622Z,13.00
2024-04-17T18:06:00.460Z,12.71
2024-04-17T18:10:03.081Z,12.36
2024-04-17T18:14:08.158Z,11.94
2024-04-17T18:18:11.972Z,11.49
2024-04-17T18:22:14.484Z,11.27
2024-04-17T18:26:19.847Z,11.01
2024-04-17T18:30:22.328Z,10.76
2024-04-17T18:34:24.796Z,10.62
2024-04-17T18:38:27.281Z,10.42
2024-04-17T18:42:29.771Z,10.04
2024-04-17T18:46:34.280Z,10.30
2024-04-17T18:50:36.726Z,10.05
2024-04-17T18:54:39.072Z,10.18
2024-04-17T18:58:42.495Z,9.81
2024-04-17T19:02:45.008Z,9.68
2024-04-17T19:06:47.454Z,9.94
2024-04-17T19:10:50.815Z,10.09
2024-04-17T19:14:54.212Z,10.16
2024-04-17T19:18:57.613Z,10.17
2024-04-17T19:23:00.609Z,10.10
2024-04-17T19:27:03.300Z,10.02
2024-04-17T19:31:09.014Z,9.71
2024-04-17T19:35:13.400Z,9.59
2024-04-17T19:39:16.955Z,9.80
2024-04-17T19:43:20.178Z,9.71
2024-04-17T19:47:23.800Z,9.83
2024-04-17T19:51:27.314Z,9.88
2024-04-17T19:55:29.829Z,9.25
2024-04-17T19:59:35.005Z,8.75
2024-04-17T20:03:39.353Z,8.48
2024-04-17T20:07:44.993Z,8.52
2024-04-17T20:11:49.718Z,8.62
2024-04-17T20:16:03.799Z,8.83
2024-04-17T20:20:15.955Z,8.83
2024-04-17T20:24:19.796Z,8.73
2024-04-17T20:28:22.988Z,8.93
2024-04-17T20:32:27.237Z,9.10
2024-04-17T20:36:30.002Z,9.08
2024-04-17T20:40:32.570Z,9.19
2024-04-17T20:44:37.865Z,9.18
2024-04-17T20:48:45.718Z,9.11
2024-04-17T20:52:48.380Z,9.12
2024-04-17T20:56:51.222Z,9.12
2024-04-17T21:01:01.365Z,9.04
2024-04-17T21:05:04.163Z,8.98
2024-04-17T21:09:08.513Z,8.96
2024-04-17T21:13:12.132Z,9.04
2024-04-17T21:17:14.481Z,9.15
2024-04-17T21:21:17.751Z,8.97
2024-04-17T21:25:22.078Z,9.00
2024-04-17T21:29:25.689Z,9.16
2024-04-17T21:33:29.162Z,9.28
2024-04-17T21:37:31.935Z,9.33
2024-04-17T21:41:34.519Z,9.30
2024-04-17T21:45:37.526Z,9.28
2024-04-17T21:49:39.947Z,9.30
2024-04-17T21:53:42.407Z,9.22
2024-04-17T21:57:44.802Z,8.95
2024-04-17T22:01:47.183Z,9.02
2024-04-17T22:05:49.748Z,9.09
2024-04-17T22:09:52.158Z,9.13
2024-04-17T22:13:54.526Z,9.16
2024-04-17T22:17:57.858Z,9.16
2024-04-17T22:22:00.358Z,8.95
2024-04-17T22:26:02.809Z,8.90
2024-04-17T22:30:05.811Z,8.88
2024-04-17T22:34:17.348Z,8.94
2024-04-17T22:38:19.780Z,9.08
2024-04-17T22:42:22.221Z,9.15
2024-04-17T22:46:24.556Z,9.19
2024-04-17T22:50:26.978Z,9.21
2024-04-17T22:54:29.442Z,8.86
2024-04-17T22:58:31.946Z,8.72
2024-04-17T23:02:34.417Z,8.67
2024-04-17T23:06:40.864Z,8.58
2024-04-17T23:11:01.576Z,8.50
2024-04-17T23:15:09.385Z,8.41
2024-04-17T23:19:19.840Z,8.59
2024-04-17T23:23:27.774Z,8.88
2024-04-17T23:27:30.240Z,8.93
2024-04-17T23:31:32.720Z,9.05
2024-04-17T23:35:35.044Z,9.16
2024-04-17T23:39:37.494Z,9.31
2024-04-17T23:43:40.286Z,9.29
2024-04-17T23:47:42.724Z,9.34
2024-04-17T23:51:45.566Z,9.08
2024-04-17T23:55:48.041Z,8.79
2024-04-17T23:59:50.582Z,8.72
